createdAt,value
2023-04-07T00:01:15.025Z,43.80
2023-04-07T00:03:48.288Z,43.70
2023-04-07T00:06:21.729Z,43.70
2023-04-07T00:08:54.866Z,43.60
2023-04-07T00:11:29.560Z,43.40
2023-04-07T00:14:02.674Z,43.40
2023-04-07T00:16:36.128Z,43.30
2023-04-07T00:19:09.332Z,43.60
2023-04-07T00:21:42.473Z,43.80
2023-04-07T00:24:18.535Z,43.80
2023-04-07T00:27:02.155Z,44.40
2023-04-07T00:29:35.387Z,43.80
2023-04-07T00:32:08.813Z,43.70
2023-04-07T00:34:42.188Z,43.70
2023-04-07T00:37:15.612Z,43.50
2023-04-07T00:39:48.788Z,43.40
2023-04-07T00:42:23.322Z,43.70
2023-04-07T00:44:56.494Z,43.90
2023-04-07T00:47:29.849Z,43.90
2023-04-07T00:50:05.213Z,43.80
2023-04-07T00:52:38.835Z,43.80
2023-04-07T00:55:12.104Z,43.40
2023-04-07T00:57:46.754Z,43.30
2023-04-07T01:00:21.065Z,43.30
2023-04-07T01:02:57.728Z,43.20
2023-04-07T01:05:40.411Z,42.90
2023-04-07T01:08:18.683Z,43.00
2023-04-07T01:10:57.769Z,43.00
2023-04-07T01:13:38.763Z,42.80
2023-04-07T01:16:25.682Z,42.70
2023-04-07T01:19:05.943Z,42.60
2023-04-07T01:21:41.286Z,42.70
2023-04-07T01:24:41.622Z,42.60
2023-04-07T01:27:22.819Z,42.40
2023-04-07T01:30:01.885Z,42.40
2023-04-07T01:32:37.921Z,42.50
2023-04-07T01:35:14.183Z,42.40
2023-04-07T01:37:50.496Z,42.40
2023-04-07T01:40:25.166Z,42.40
2023-04-07T01:42:59.713Z,42.40
2023-04-07T01:45:36.853Z,42.30
2023-04-07T01:48:11.474Z,42.30
2023-04-07T01:50:47.435Z,42.30
2023-04-07T01:53:21.245Z,42.20
2023-04-07T01:55:54.695Z,42.20
2023-04-07T01:58:28.145Z,42.10
2023-04-07T02:01:03.642Z,42.20
2023-04-07T02:03:44.464Z,42.00
2023-04-07T02:06:23.548Z,42.00
2023-04-07T02:09:02.813Z,42.50
2023-04-07T02:11:38.562Z,41.90
2023-04-07T02:14:12.440Z,41.90
2023-04-07T02:17:03.760Z,41.80
2023-04-07T02:19:37.891Z,41.90
2023-04-07T02:22:11.805Z,42.00
2023-04-07T02:24:46.624Z,42.50
2023-04-07T02:27:20.628Z,43.20
2023-04-07T02:29:54.460Z,42.80
2023-04-07T02:32:31.129Z,42.80
2023-04-07T02:35:04.482Z,43.00
2023-04-07T02:37:37.600Z,43.20
2023-04-07T02:40:11.246Z,43.40
2023-04-07T02:42:44.477Z,43.40
2023-04-07T02:45:17.872Z,43.30
2023-04-07T02:47:52.389Z,43.50
2023-04-07T02:50:26.456Z,43.50
2023-04-07T02:52:59.588Z,43.70
2023-04-07T02:55:32.739Z,43.70
2023-04-07T02:58:05.894Z,43.70
2023-04-07T03:00:50.865Z,43.60
2023-04-07T03:03:31.729Z,43.60
2023-04-07T03:06:16.316Z,43.60
2023-04-07T03:09:01.239Z,43.60
2023-04-07T03:11:34.483Z,43.60
2023-04-07T03:14:07.731Z,43.60
2023-04-07T03:16:47.958Z,44.20
2023-04-07T03:19:23.391Z,43.70
2023-04-07T03:21:57.242Z,43.60
2023-04-07T03:24:30.592Z,43.70
2023-04-07T03:27:04.184Z,43.70
2023-04-07T03:29:46.855Z,43.80
2023-04-07T03:32:21.943Z,44.00
2023-04-07T03:34:57.162Z,44.00
2023-04-07T03:37:30.379Z,44.10
2023-04-07T03:40:04.087Z,44.00
2023-04-07T03:42:41.107Z,44.00
2023-04-07T03:45:15.026Z,44.00
2023-04-07T03:47:54.336Z,44.00
2023-04-07T03:50:30.099Z,43.90
2023-04-07T03:53:16.621Z,43.90
2023-04-07T03:55:50.703Z,43.90
2023-04-07T03:58:32.879Z,43.80
2023-04-07T04:01:06.389Z,43.80
2023-04-07T04:03:39.950Z,43.70
2023-04-07T04:06:32.398Z,43.70
2023-04-07T04:09:14.522Z,43.80
2023-04-07T04:11:51.916Z,43.70
2023-04-07T04:14:25.426Z,43.80
2023-04-07T04:17:05.534Z,43.80
2023-04-07T04:19:44.717Z,43.90
2023-04-07T04:22:29.615Z,43.90
2023-04-07T04:25:05.631Z,43.90
2023-04-07T04:27:38.888Z,43.90
2023-04-07T04:30:20.749Z,43.80
2023-04-07T04:32:58.556Z,43.90
2023-04-07T04:35:40.578Z,43.90
2023-04-07T04:38:18.850Z,43.90
2023-04-07T04:40:58.998Z,43.80
2023-04-07T04:43:36.005Z,43.90
2023-04-07T04:46:11.001Z,44.00
2023-04-07T04:48:48.135Z,44.00
2023-04-07T04:51:23.780Z,44.20
2023-04-07T04:54:04.011Z,45.00
2023-04-07T04:56:37.451Z,44.90
2023-04-07T04:59:10.905Z,45.00
2023-04-07T05:02:06.733Z,45.30
2023-04-07T05:04:40.029Z,45.10
2023-04-07T05:07:42.632Z,45.10
2023-04-07T05:10:20.474Z,45.10
2023-04-07T05:12:56.803Z,45.20
2023-04-07T05:15:30.020Z,45.20
2023-04-07T05:18:03.698Z,45.20
2023-04-07T05:20:37.092Z,45.10
2023-04-07T05:23:10.385Z,45.40
2023-04-07T05:25:45.441Z,45.50
2023-04-07T05:28:19.440Z,45.50
2023-04-07T05:30:52.791Z,45.60
2023-04-07T05:33:29.863Z,45.80
2023-04-07T05:36:03.732Z,45.60
2023-04-07T05:38:38.228Z,45.60
2023-04-07T05:41:19.141Z,45.60
2023-04-07T05:43:52.501Z,45.60
2023-04-07T05:46:25.887Z,45.50
2023-04-07T05:49:16.817Z,45.40
2023-04-07T05:51:56.819Z,45.40
2023-04-07T05:54:30.419Z,45.30
2023-04-07T05:57:06.024Z,45.30
2023-04-07T05:59:39.525Z,45.30
2023-04-07T06:02:13.213Z,45.20
2023-04-07T06:04:46.762Z,45.10
2023-04-07T06:07:23.048Z,45.80
2023-04-07T06:09:56.465Z,45.20
2023-04-07T06:12:31.116Z,45.10
2023-04-07T06:15:04.459Z,45.00
2023-04-07T06:17:37.599Z,44.90
2023-04-07T06:20:11.662Z,44.90
2023-04-07T06:22:44.851Z,44.90
2023-04-07T06:25:18.184Z,44.80
2023-04-07T06:27:52.698Z,44.80
2023-04-07T06:30:25.996Z,44.80
2023-04-07T06:32:59.381Z,44.70
2023-04-07T06:35:32.608Z,44.70
2023-04-07T06:38:05.739Z,44.60
2023-04-07T06:40:38.977Z,44.70
2023-04-07T06:43:13.484Z,44.70
2023-04-07T06:45:51.108Z,44.50
2023-04-07T06:48:24.657Z,44.60
2023-04-07T06:50:57.842Z,44.60
2023-04-07T06:53:31.026Z,44.60
2023-04-07T06:56:05.477Z,44.40
2023-04-07T06:58:40.723Z,44.50
2023-04-07T07:01:13.943Z,44.50
2023-04-07T07:03:47.573Z,44.40
2023-04-07T07:06:21.113Z,44.40
2023-04-07T07:08:54.313Z,44.40
2023-04-07T07:11:27.505Z,44.50
2023-04-07T07:14:02.006Z,44.40
2023-04-07T07:16:35.167Z,44.30
2023-04-07T07:19:08.377Z,44.30
2023-04-07T07:21:41.629Z,44.30
2023-04-07T07:24:14.869Z,44.30
2023-04-07T07:26:47.999Z,44.20
2023-04-07T07:29:22.968Z,44.20
2023-04-07T07:31:56.395Z,44.30
2023-04-07T07:34:29.635Z,44.30
2023-04-07T07:37:02.957Z,44.40
2023-04-07T07:39:36.624Z,44.40
2023-04-07T07:42:09.799Z,44.50
2023-04-07T07:44:44.315Z,44.50
2023-04-07T07:47:17.652Z,44.70
2023-04-07T07:49:51.117Z,44.70
2023-04-07T07:52:24.454Z,44.80
2023-04-07T07:54:58.020Z,45.00
2023-04-07T07:57:31.986Z,45.00
2023-04-07T08:00:08.253Z,45.00
2023-04-07T08:02:47.196Z,45.30
2023-04-07T08:05:20.685Z,45.40
2023-04-07T08:07:55.614Z,45.60
2023-04-07T08:10:29.188Z,46.30
2023-04-07T08:13:02.869Z,46.70
2023-04-07T08:15:37.590Z,47.00
2023-04-07T08:18:11.135Z,43.40
2023-04-07T08:20:44.587Z,40.80
2023-04-07T08:23:17.796Z,40.10
2023-04-07T08:25:51.199Z,40.40
2023-04-07T08:28:25.434Z,40.60
2023-04-07T08:30:59.925Z,40.70
2023-04-07T08:33:33.083Z,40.60
2023-04-07T08:36:06.847Z,40.70
2023-04-07T08:38:40.590Z,40.90
2023-04-07T08:41:17.998Z,40.80
2023-04-07T08:43:52.619Z,40.70
2023-04-07T08:46:27.901Z,40.70
2023-04-07T08:49:02.581Z,40.80
2023-04-07T08:51:38.388Z,41.00
2023-04-07T08:54:13.040Z,41.20
2023-04-07T08:56:46.770Z,41.30
2023-04-07T08:59:25.339Z,41.40
2023-04-07T09:02:00.797Z,41.70
2023-04-07T09:04:34.334Z,42.00
2023-04-07T09:07:07.468Z,42.40
2023-04-07T09:09:41.085Z,42.80
2023-04-07T09:12:14.724Z,43.10
2023-04-07T09:14:47.927Z,43.40
2023-04-07T09:17:23.029Z,43.70
2023-04-07T09:19:59.560Z,43.90
2023-04-07T09:22:37.056Z,44.40
2023-04-07T09:25:15.441Z,44.40
2023-04-07T09:27:58.964Z,44.30
2023-04-07T09:30:34.097Z,44.40
2023-04-07T09:33:08.779Z,44.40
2023-04-07T09:35:53.353Z,44.50
2023-04-07T09:38:35.127Z,44.80
2023-04-07T09:41:09.952Z,44.80
2023-04-07T09:43:46.330Z,45.00
2023-04-07T09:46:20.106Z,44.90
2023-04-07T09:49:03.553Z,44.70
2023-04-07T09:51:36.764Z,44.90
2023-04-07T09:54:10.424Z,44.90
2023-04-07T09:56:43.638Z,44.90
2023-04-07T09:59:17.469Z,45.10
2023-04-07T10:01:50.627Z,45.30
2023-04-07T10:04:25.698Z,45.50
2023-04-07T10:07:00.320Z,46.00
2023-04-07T10:09:33.478Z,46.50
2023-04-07T10:12:08.126Z,46.90
2023-04-07T10:14:46.885Z,47.60
2023-04-07T10:17:21.542Z,47.60
2023-04-07T10:19:59.287Z,48.00
2023-04-07T10:22:33.543Z,47.30
2023-04-07T10:25:10.667Z,47.10
2023-04-07T10:27:50.475Z,47.10
2023-04-07T10:30:27.089Z,47.00
2023-04-07T10:33:02.412Z,47.10
2023-04-07T10:36:07.931Z,47.10
2023-04-07T10:38:41.578Z,47.30
2023-04-07T10:41:33.155Z,47.50
2023-04-07T10:44:07.052Z,48.00
2023-04-07T10:47:05.744Z,48.00
2023-04-07T10:49:38.945Z,48.70
2023-04-07T10:52:26.000Z,48.70
2023-04-07T10:55:31.846Z,49.10
2023-04-07T10:58:18.914Z,49.20
2023-04-07T11:01:23.136Z,49.30
2023-04-07T11:04:01.373Z,49.70
2023-04-07T11:06:36.270Z,49.80
2023-04-07T11:09:20.663Z,50.30
2023-04-07T11:11:53.962Z,51.00
2023-04-07T11:14:28.369Z,51.20
2023-04-07T11:17:02.208Z,51.70
2023-04-07T11:19:52.272Z,52.90
2023-04-07T11:22:30.239Z,53.20
2023-04-07T11:25:21.182Z,53.50
2023-04-07T11:27:54.585Z,54.20
2023-04-07T11:30:27.895Z,54.70
2023-04-07T11:33:01.339Z,55.00
2023-04-07T11:35:34.653Z,54.80
2023-04-07T11:38:07.942Z,54.70
2023-04-07T11:40:42.516Z,54.80
2023-04-07T11:43:20.913Z,54.90
2023-04-07T11:46:09.884Z,54.70
2023-04-07T11:48:45.126Z,54.70
2023-04-07T11:51:19.276Z,54.50
2023-04-07T11:53:57.249Z,54.90
2023-04-07T11:56:42.192Z,54.30
2023-04-07T11:59:23.061Z,54.20
2023-04-07T12:01:58.005Z,54.10
2023-04-07T12:04:32.046Z,53.70
2023-04-07T12:07:09.386Z,53.30
2023-04-07T12:09:42.554Z,52.80
2023-04-07T12:12:27.515Z,52.60
2023-04-07T12:15:00.709Z,52.50
2023-04-07T12:17:33.861Z,52.90
2023-04-07T12:20:08.409Z,52.10
2023-04-07T12:22:42.207Z,52.00
2023-04-07T12:25:15.513Z,52.30
2023-04-07T12:27:50.097Z,51.40
2023-04-07T12:30:23.640Z,51.50
2023-04-07T12:32:56.843Z,51.20
2023-04-07T12:35:30.483Z,50.70
2023-04-07T12:38:05.524Z,50.30
2023-04-07T12:40:38.839Z,49.80
2023-04-07T12:43:13.677Z,49.50
2023-04-07T12:45:47.495Z,49.30
2023-04-07T12:48:21.371Z,49.00
2023-04-07T12:50:54.644Z,49.10
2023-04-07T12:53:28.922Z,49.10
2023-04-07T12:56:02.472Z,49.20
2023-04-07T12:58:37.101Z,49.20
2023-04-07T13:01:10.761Z,49.80
2023-04-07T13:03:44.360Z,49.40
2023-04-07T13:06:17.742Z,49.50
2023-04-07T13:08:51.729Z,49.70
2023-04-07T13:11:25.706Z,49.90
2023-04-07T13:14:01.356Z,50.10
2023-04-07T13:16:34.910Z,50.20
2023-04-07T13:19:09.379Z,50.30
2023-04-07T13:21:46.808Z,50.40
2023-04-07T13:24:21.608Z,50.50
2023-04-07T13:26:56.096Z,50.50
2023-04-07T13:29:30.765Z,50.80
2023-04-07T13:32:07.948Z,51.20
2023-04-07T13:34:41.249Z,51.80
2023-04-07T13:37:14.473Z,52.50
2023-04-07T13:39:47.713Z,52.80
2023-04-07T13:42:21.033Z,53.00
2023-04-07T13:44:55.605Z,53.40
2023-04-07T13:47:33.925Z,53.70
2023-04-07T13:50:08.034Z,54.20
2023-04-07T13:52:41.316Z,54.70
2023-04-07T13:55:16.029Z,54.90
2023-04-07T13:57:49.324Z,54.80
2023-04-07T14:00:23.973Z,55.00
2023-04-07T14:02:57.557Z,55.10
2023-04-07T14:05:31.056Z,55.10
2023-04-07T14:08:04.549Z,55.00
2023-04-07T14:10:37.819Z,55.00
2023-04-07T14:13:11.205Z,54.80
2023-04-07T14:15:46.157Z,54.60
2023-04-07T14:18:19.379Z,54.30
2023-04-07T14:20:52.559Z,54.20
2023-04-07T14:23:36.855Z,54.30
2023-04-07T14:26:12.164Z,54.20
2023-04-07T14:28:45.354Z,54.70
2023-04-07T14:31:19.891Z,55.70
2023-04-07T14:33:53.169Z,57.00
2023-04-07T14:36:27.334Z,57.20
2023-04-07T14:39:01.144Z,57.70
2023-04-07T14:41:34.161Z,57.10
2023-04-07T14:44:07.333Z,56.10
2023-04-07T14:46:43.036Z,55.70
2023-04-07T14:49:16.876Z,55.30
2023-04-07T14:51:50.062Z,54.60
2023-04-07T14:54:23.444Z,53.80
2023-04-07T14:56:56.733Z,53.50
2023-04-07T14:59:29.941Z,53.00
2023-04-07T15:02:04.563Z,52.60
2023-04-07T15:04:37.898Z,52.20
2023-04-07T15:07:11.300Z,51.80
2023-04-07T15:09:44.551Z,51.50
2023-04-07T15:12:17.797Z,51.20
2023-04-07T15:14:52.282Z,50.80
2023-04-07T15:17:40.146Z,50.60
2023-04-07T15:20:16.844Z,50.50
2023-04-07T15:22:50.035Z,50.20
2023-04-07T15:25:23.771Z,50.10
2023-04-07T15:27:56.958Z,50.00
2023-04-07T15:30:33.781Z,50.10
2023-04-07T15:33:09.653Z,50.40
2023-04-07T15:35:44.085Z,50.70
2023-04-07T15:38:17.338Z,51.20
2023-04-07T15:40:50.576Z,50.60
2023-04-07T15:43:23.919Z,50.90
2023-04-07T15:45:57.179Z,51.30
2023-04-07T15:48:32.843Z,51.60
2023-04-07T15:51:06.221Z,51.60
2023-04-07T15:53:39.402Z,51.90
2023-04-07T15:56:13.708Z,52.10
2023-04-07T15:58:47.092Z,52.30
2023-04-07T16:01:21.292Z,52.40
2023-04-07T16:03:56.117Z,52.20
2023-04-07T16:06:29.417Z,52.10
2023-04-07T16:09:03.329Z,52.00
2023-04-07T16:11:36.513Z,52.30
2023-04-07T16:14:09.749Z,52.20
2023-04-07T16:16:44.508Z,52.20
2023-04-07T16:19:19.255Z,52.10
2023-04-07T16:21:52.605Z,52.00
2023-04-07T16:24:25.847Z,51.60
2023-04-07T16:27:04.020Z,51.70
2023-04-07T16:29:37.548Z,51.80
2023-04-07T16:32:10.907Z,51.80
2023-04-07T16:34:45.472Z,51.70
2023-04-07T16:37:18.634Z,51.60
2023-04-07T16:39:51.830Z,52.00
2023-04-07T16:42:26.297Z,51.40
2023-04-07T16:45:01.288Z,51.20
2023-04-07T16:47:35.388Z,51.00
2023-04-07T16:50:10.717Z,50.90
2023-04-07T16:52:43.957Z,50.80
2023-04-07T16:55:17.144Z,50.70
2023-04-07T16:57:51.010Z,50.60
2023-04-07T17:00:24.060Z,50.50
2023-04-07T17:02:57.394Z,50.20
2023-04-07T17:05:32.129Z,50.30
2023-04-07T17:08:05.639Z,50.20
2023-04-07T17:10:38.811Z,50.10
2023-04-07T17:13:11.986Z,50.00
2023-04-07T17:15:45.337Z,49.90
2023-04-07T17:18:18.616Z,49.80
2023-04-07T17:20:53.240Z,49.70
2023-04-07T17:23:28.316Z,49.60
2023-04-07T17:26:01.646Z,49.60
2023-04-07T17:28:34.843Z,49.50
2023-04-07T17:31:08.035Z,49.30
2023-04-07T17:33:41.336Z,49.30
2023-04-07T17:36:16.095Z,49.20
2023-04-07T17:38:49.288Z,49.10
2023-04-07T17:41:22.693Z,49.00
2023-04-07T17:43:55.880Z,49.00
2023-04-07T17:46:29.155Z,48.80
2023-04-07T17:49:02.490Z,48.80
2023-04-07T17:51:37.006Z,48.70
2023-04-07T17:54:10.159Z,48.60
2023-04-07T17:56:43.414Z,48.60
2023-04-07T17:59:16.634Z,48.50
2023-04-07T18:01:49.896Z,48.40
2023-04-07T18:04:23.213Z,48.30
2023-04-07T18:06:57.868Z,48.30
2023-04-07T18:09:31.429Z,48.20
2023-04-07T18:12:04.793Z,48.10
2023-04-07T18:14:37.941Z,48.00
2023-04-07T18:17:11.401Z,48.00
2023-04-07T18:19:44.825Z,48.00
2023-04-07T18:22:19.363Z,47.90
2023-04-07T18:24:52.568Z,47.90
2023-04-07T18:27:28.223Z,47.70
2023-04-07T18:30:01.398Z,47.70
2023-04-07T18:32:34.598Z,47.50
2023-04-07T18:35:08.883Z,47.50
2023-04-07T18:37:44.361Z,47.40
2023-04-07T18:40:18.163Z,47.30
2023-04-07T18:42:51.300Z,47.30
2023-04-07T18:45:24.460Z,47.30
2023-04-07T18:47:57.671Z,47.10
2023-04-07T18:50:30.873Z,47.10
2023-04-07T18:53:06.614Z,47.00
2023-04-07T18:55:39.805Z,47.00
2023-04-07T18:58:14.237Z,46.90
2023-04-07T19:00:49.493Z,46.80
2023-04-07T19:03:23.004Z,46.80
2023-04-07T19:05:56.614Z,46.80
2023-04-07T19:08:31.384Z,46.70
2023-04-07T19:11:04.710Z,46.60
2023-04-07T19:13:37.851Z,46.70
2023-04-07T19:16:12.089Z,46.60
2023-04-07T19:18:45.644Z,46.60
2023-04-07T19:21:19.938Z,46.50
2023-04-07T19:23:56.133Z,46.40
2023-04-07T19:26:30.634Z,46.40
2023-04-07T19:29:05.681Z,46.30
2023-04-07T19:31:39.067Z,46.40
2023-04-07T19:34:12.508Z,46.40
2023-04-07T19:36:46.218Z,46.60
2023-04-07T19:39:22.758Z,46.70
2023-04-07T19:41:56.079Z,46.90
2023-04-07T19:44:29.296Z,46.80
2023-04-07T19:47:02.515Z,47.20
2023-04-07T19:49:36.270Z,47.80
2023-04-07T19:52:09.303Z,48.00
2023-04-07T19:54:49.275Z,48.10
2023-04-07T19:57:22.670Z,48.00
2023-04-07T19:59:56.164Z,48.00
2023-04-07T20:02:29.669Z,48.10
2023-04-07T20:05:03.491Z,48.20
2023-04-07T20:07:36.788Z,48.30
2023-04-07T20:10:11.856Z,48.50
2023-04-07T20:12:45.108Z,48.20
2023-04-07T20:15:18.469Z,48.40
2023-04-07T20:17:52.841Z,48.70
2023-04-07T20:20:27.357Z,48.80
2023-04-07T20:23:00.568Z,48.90
2023-04-07T20:25:37.208Z,49.00
2023-04-07T20:28:11.391Z,49.00
2023-04-07T20:30:44.919Z,48.90
2023-04-07T20:33:18.405Z,49.00
2023-04-07T20:35:52.978Z,49.00
2023-04-07T20:38:26.537Z,49.00
2023-04-07T20:41:01.559Z,49.10
2023-04-07T20:43:34.830Z,49.20
2023-04-07T20:46:08.149Z,49.10
2023-04-07T20:48:41.350Z,49.20
2023-04-07T20:51:14.660Z,49.20
2023-04-07T20:53:48.400Z,49.20
2023-04-07T20:56:23.735Z,49.20
2023-04-07T20:58:57.091Z,49.30
2023-04-07T21:01:30.584Z,49.30
2023-04-07T21:04:03.948Z,49.20
2023-04-07T21:06:37.165Z,49.30
2023-04-07T21:09:10.608Z,49.30
2023-04-07T21:11:45.481Z,49.30
2023-04-07T21:14:18.715Z,49.40
2023-04-07T21:16:51.858Z,49.30
2023-04-07T21:19:25.338Z,49.50
2023-04-07T21:21:58.605Z,49.40
2023-04-07T21:24:32.084Z,49.40
2023-04-07T21:27:06.795Z,49.40
2023-04-07T21:29:42.395Z,49.40
2023-04-07T21:32:15.655Z,49.40
2023-04-07T21:34:52.374Z,49.40
2023-04-07T21:37:27.469Z,49.40
2023-04-07T21:40:00.643Z,49.30
2023-04-07T21:42:35.197Z,49.30
2023-04-07T21:45:09.958Z,49.30
2023-04-07T21:47:43.114Z,49.40
2023-04-07T21:50:16.856Z,49.40
2023-04-07T21:52:51.470Z,49.30
2023-04-07T21:55:24.627Z,49.30
2023-04-07T21:57:59.132Z,49.30
2023-04-07T22:00:32.408Z,49.20
2023-04-07T22:03:07.111Z,49.30
2023-04-07T22:05:40.942Z,49.30
2023-04-07T22:08:14.110Z,49.30
2023-04-07T22:10:47.258Z,49.20
2023-04-07T22:13:21.782Z,49.10
2023-04-07T22:15:55.028Z,49.10
2023-04-07T22:18:28.191Z,49.10
2023-04-07T22:21:01.416Z,49.00
2023-04-07T22:23:34.570Z,49.00
2023-04-07T22:26:07.706Z,49.00
2023-04-07T22:28:42.452Z,49.00
2023-04-07T22:31:15.674Z,49.00
2023-04-07T22:33:48.899Z,49.00
2023-04-07T22:36:22.031Z,49.00
2023-04-07T22:38:55.307Z,48.90
2023-04-07T22:41:28.573Z,48.90
2023-04-07T22:44:03.087Z,48.80
2023-04-07T22:46:36.434Z,48.80
2023-04-07T22:49:09.809Z,48.80
2023-04-07T22:51:48.358Z,48.80
2023-04-07T22:54:21.620Z,48.80
2023-04-07T22:56:54.810Z,48.70
2023-04-07T22:59:29.326Z,48.70
2023-04-07T23:02:02.528Z,48.60
2023-04-07T23:04:35.796Z,48.80
2023-04-07T23:07:08.948Z,48.50
2023-04-07T23:09:42.110Z,48.50
2023-04-07T23:12:15.668Z,48.60
2023-04-07T23:14:50.204Z,48.50
2023-04-07T23:17:23.442Z,48.60
2023-04-07T23:19:59.849Z,48.50
2023-04-07T23:22:32.987Z,48.60
2023-04-07T23:25:07.390Z,48.50
2023-04-07T23:27:40.621Z,48.50
2023-04-07T23:30:15.633Z,48.50
2023-04-07T23:32:48.887Z,48.50
2023-04-07T23:35:22.111Z,48.60
2023-04-07T23:37:55.293Z,48.50
2023-04-07T23:40:28.887Z,48.50
2023-04-07T23:43:02.110Z,48.60
2023-04-07T23:45:36.709Z,48.40
2023-04-07T23:48:10.040Z,48.40
2023-04-07T23:50:43.914Z,48.40
2023-04-07T23:53:16.965Z,48.40
2023-04-07T23:55:50.500Z,48.50
2023-04-07T23:58:23.738Z,48.30
